sensor_id;sensor_type;location;lat;lon;timestamp;pressure;altitude;pressure_sealevel;temperature;humidity
12676;BME280;63820;65.654;21.944;2023-01-13T00:01:10;98335.78;;;0.17;100.00
12676;BME280;63820;65.654;21.944;2023-01-13T00:03:55;98341.78;;;0.16;100.00
12676;BME280;63820;65.654;21.944;2023-01-13T00:06:40;98336.72;;;0.14;100.00
12676;BME280;63820;65.654;21.944;2023-01-13T00:09:24;98350.44;;;0.12;100.00
12676;BME280;63820;65.654;21.944;2023-01-13T00:12:09;98348.56;;;0.17;100.00
12676;BME280;63820;65.654;21.944;2023-01-13T00:14:53;98353.72;;;0.15;100.00
12676;BME280;63820;65.654;21.944;2023-01-13T00:17:37;98351.16;;;0.15;100.00
12676;BME280;63820;65.654;21.944;2023-01-13T00:20:21;98360.44;;;0.18;100.00
12676;BME280;63820;65.654;21.944;2023-01-13T00:23:06;98353.66;;;0.17;100.00
12676;BME280;63820;65.654;21.944;2023-01-13T00:25:50;98364.94;;;0.11;100.00
12676;BME280;63820;65.654;21.944;2023-01-13T00:28:34;98359.78;;;0.13;100.00
12676;BME280;63820;65.654;21.944;2023-01-13T00:31:19;98354.75;;;0.10;100.00
12676;BME280;63820;65.654;21.944;2023-01-13T00:34:04;98352.09;;;0.13;100.00
12676;BME280;63820;65.654;21.944;2023-01-13T00:36:48;98352.38;;;0.05;100.00
12676;BME280;63820;65.654;21.944;2023-01-13T00:39:32;98352.31;;;0.07;100.00
12676;BME280;63820;65.654;21.944;2023-01-13T00:42:16;98352.38;;;0.05;100.00
12676;BME280;63820;65.654;21.944;2023-01-13T00:45:18;98357.53;;;0.04;100.00
12676;BME280;63820;65.654;21.944;2023-01-13T00:48:03;98357.78;;;-0.03;100.00
12676;BME280;63820;65.654;21.944;2023-01-13T00:51:00;98358.78;;;-0.07;100.00
12676;BME280;63820;65.654;21.944;2023-01-13T00:53:48;98363.09;;;-0.09;100.00
12676;BME280;63820;65.654;21.944;2023-01-13T00:56:32;98359.44;;;-0.02;100.00
12676;BME280;63820;65.654;21.944;2023-01-13T00:59:16;98358.56;;;-0.01;100.00
12676;BME280;63820;65.654;21.944;2023-01-13T01:02:02;98359.31;;;0.02;100.00
12676;BME280;63820;65.654;21.944;2023-01-13T01:04:46;98361.13;;;-0.01;100.00
12676;BME280;63820;65.654;21.944;2023-01-13T01:07:30;98352.44;;;0.04;100.00
12676;BME280;63820;65.654;21.944;2023-01-13T01:10:14;98349.22;;;-0.02;100.00
12676;BME280;63820;65.654;21.944;2023-01-13T01:12:59;98355.44;;;-0.09;100.00
12676;BME280;63820;65.654;21.944;2023-01-13T01:15:43;98350.91;;;-0.01;100.00
12676;BME280;63820;65.654;21.944;2023-01-13T01:18:27;98360.50;;;-0.07;100.00
12676;BME280;63820;65.654;21.944;2023-01-13T01:21:13;98361.59;;;-0.14;100.00
12676;BME280;63820;65.654;21.944;2023-01-13T01:23:59;98365.97;;;-0.18;100.00
12676;BME280;63820;65.654;21.944;2023-01-13T01:26:44;98362.63;;;-0.20;100.00
12676;BME280;63820;65.654;21.944;2023-01-13T01:29:28;98340.28;;;-0.38;100.00
12676;BME280;63820;65.654;21.944;2023-01-13T01:32:12;98358.72;;;-0.30;100.00
12676;BME280;63820;65.654;21.944;2023-01-13T01:34:57;98369.03;;;-0.33;100.00
12676;BME280;63820;65.654;21.944;2023-01-13T01:37:41;98363.94;;;-0.33;100.00
12676;BME280;63820;65.654;21.944;2023-01-13T01:40:26;98363.16;;;-0.35;100.00
12676;BME280;63820;65.654;21.944;2023-01-13T01:43:15;98362.28;;;-0.34;100.00
12676;BME280;63820;65.654;21.944;2023-01-13T01:46:18;98357.91;;;-0.30;100.00
12676;BME280;63820;65.654;21.944;2023-01-13T01:49:18;98359.03;;;-0.39;100.00
12676;BME280;63820;65.654;21.944;2023-01-13T01:52:25;98366.75;;;-0.41;100.00
12676;BME280;63820;65.654;21.944;2023-01-13T01:55:18;98359.03;;;-0.39;100.00
12676;BME280;63820;65.654;21.944;2023-01-13T01:58:14;98363.91;;;-0.58;100.00
12676;BME280;63820;65.654;21.944;2023-01-13T02:01:00;98367.09;;;-0.51;100.00
12676;BME280;63820;65.654;21.944;2023-01-13T02:03:53;98370.91;;;-0.38;100.00
12676;BME280;63820;65.654;21.944;2023-01-13T02:06:39;98361.59;;;-0.39;100.00
12676;BME280;63820;65.654;21.944;2023-01-13T02:09:25;98366.34;;;-0.28;100.00
12676;BME280;63820;65.654;21.944;2023-01-13T02:12:10;98357.75;;;-0.26;100.00
12676;BME280;63820;65.654;21.944;2023-01-13T02:15:16;98351.13;;;-0.31;100.00
12676;BME280;63820;65.654;21.944;2023-01-13T02:24:38;98356.06;;;-0.27;100.00
12676;BME280;63820;65.654;21.944;2023-01-13T02:30:50;98369.03;;;-0.33;100.00
12676;BME280;63820;65.654;21.944;2023-01-13T02:36:52;98353.94;;;-0.39;100.00
12676;BME280;63820;65.654;21.944;2023-01-13T02:42:40;98363.09;;;-0.34;100.00
12676;BME280;63820;65.654;21.944;2023-01-13T02:45:57;98368.84;;;-0.27;100.00
12676;BME280;63820;65.654;21.944;2023-01-13T02:48:46;98360.19;;;-0.23;100.00
12676;BME280;63820;65.654;21.944;2023-01-13T02:51:33;98359.47;;;-0.26;100.00
12676;BME280;63820;65.654;21.944;2023-01-13T02:54:25;98359.66;;;-0.32;100.00
12676;BME280;63820;65.654;21.944;2023-01-13T02:57:11;98360.59;;;-0.35;100.00
12676;BME280;63820;65.654;21.944;2023-01-13T02:59:57;98373.31;;;-0.34;100.00
12676;BME280;63820;65.654;21.944;2023-01-13T03:02:42;98374.94;;;-0.31;100.00
12676;BME280;63820;65.654;21.944;2023-01-13T03:05:26;98376.59;;;-0.30;100.00
12676;BME280;63820;65.654;21.944;2023-01-13T03:11:10;98374.72;;;-0.25;100.00
12676;BME280;63820;65.654;21.944;2023-01-13T03:14:23;98390.63;;;-0.17;100.00
12676;BME280;63820;65.654;21.944;2023-01-13T03:20:25;98388.19;;;-0.20;100.00
12676;BME280;63820;65.654;21.944;2023-01-13T03:23:18;98392.97;;;-0.11;100.00
12676;BME280;63820;65.654;21.944;2023-01-13T03:26:22;98387.81;;;-0.09;100.00
12676;BME280;63820;65.654;21.944;2023-01-13T03:32:26;98388.88;;;-0.15;100.00
12676;BME280;63820;65.654;21.944;2023-01-13T03:35:22;98386.41;;;-0.18;100.00
12676;BME280;63820;65.654;21.944;2023-01-13T03:38:12;98389.81;;;-0.17;100.00
12676;BME280;63820;65.654;21.944;2023-01-13T03:41:04;98400.84;;;-0.17;100.00
12676;BME280;63820;65.654;21.944;2023-01-13T03:44:15;98400.84;;;-0.17;100.00
12676;BME280;63820;65.654;21.944;2023-01-13T03:50:15;98416.28;;;-0.20;100.00
12676;BME280;63820;65.654;21.944;2023-01-13T03:53:12;98413.78;;;-0.21;100.00
12676;BME280;63820;65.654;21.944;2023-01-13T03:56:06;98407.06;;;-0.24;100.00
12676;BME280;63820;65.654;21.944;2023-01-13T03:58:52;98417.31;;;-0.25;100.00
12676;BME280;63820;65.654;21.944;2023-01-13T04:01:50;98424.16;;;-0.26;100.00
12676;BME280;63820;65.654;21.944;2023-01-13T04:04:41;98423.38;;;-0.28;100.00
12676;BME280;63820;65.654;21.944;2023-01-13T04:10:39;98431.81;;;-0.26;100.00
12676;BME280;63820;65.654;21.944;2023-01-13T04:13:28;98426.75;;;-0.27;100.00
12676;BME280;63820;65.654;21.944;2023-01-13T04:16:13;98435.50;;;-0.35;100.00
12676;BME280;63820;65.654;21.944;2023-01-13T04:18:57;98432.91;;;-0.33;100.00
12676;BME280;63820;65.654;21.944;2023-01-13T04:21:42;98436.44;;;-0.37;100.00
12676;BME280;63820;65.654;21.944;2023-01-13T04:24:26;98438.88;;;-0.34;100.00
12676;BME280;63820;65.654;21.944;2023-01-13T04:27:10;98448.31;;;-0.36;100.00
12676;BME280;63820;65.654;21.944;2023-01-13T04:29:54;98450.34;;;-0.46;100.00
12676;BME280;63820;65.654;21.944;2023-01-13T04:32:38;98444.50;;;-0.49;100.00
12676;BME280;63820;65.654;21.944;2023-01-13T04:35:23;98452.09;;;-0.48;100.00
12676;BME280;63820;65.654;21.944;2023-01-13T04:38:10;98450.63;;;-0.55;100.00
12676;BME280;63820;65.654;21.944;2023-01-13T04:40:55;98452.44;;;-0.58;100.00
12676;BME280;63820;65.654;21.944;2023-01-13T04:43:39;98455.88;;;-0.59;100.00
12676;BME280;63820;65.654;21.944;2023-01-13T04:46:23;98453.41;;;-0.62;100.00
12676;BME280;63820;65.654;21.944;2023-01-13T04:49:07;98460.09;;;-0.58;100.00
12676;BME280;63820;65.654;21.944;2023-01-13T04:51:51;98460.28;;;-0.64;100.00
12676;BME280;63820;65.654;21.944;2023-01-13T04:54:35;98457.69;;;-0.63;100.00
12676;BME280;63820;65.654;21.944;2023-01-13T04:57:19;98464.78;;;-0.73;100.00
12676;BME280;63820;65.654;21.944;2023-01-13T05:00:05;98474.56;;;-0.87;100.00
12676;BME280;63820;65.654;21.944;2023-01-13T05:02:50;98480.25;;;-0.77;100.00
12676;BME280;63820;65.654;21.944;2023-01-13T05:05:35;98478.38;;;-0.72;100.00
12676;BME280;63820;65.654;21.944;2023-01-13T05:08:19;98473.47;;;-0.78;100.00
12676;BME280;63820;65.654;21.944;2023-01-13T05:11:03;98470.56;;;-0.95;100.00
12676;BME280;63820;65.654;21.944;2023-01-13T05:14:07;98470.22;;;-1.11;100.00
12676;BME280;63820;65.654;21.944;2023-01-13T05:17:21;98478.50;;;-1.34;100.00
12676;BME280;63820;65.654;21.944;2023-01-13T05:20:07;98479.09;;;-1.24;100.00
12676;BME280;63820;65.654;21.944;2023-01-13T05:22:52;98486.13;;;-1.33;100.00
12676;BME280;63820;65.654;21.944;2023-01-13T05:25:55;98480.38;;;-1.41;100.00
12676;BME280;63820;65.654;21.944;2023-01-13T05:28:39;98483.41;;;-1.26;100.00
12676;BME280;63820;65.654;21.944;2023-01-13T05:31:23;98481.59;;;-1.23;100.00
12676;BME280;63820;65.654;21.944;2023-01-13T05:34:07;98481.59;;;-1.23;100.00
12676;BME280;63820;65.654;21.944;2023-01-13T05:36:52;98487.38;;;-1.16;100.00
12676;BME280;63820;65.654;21.944;2023-01-13T05:39:35;98488.94;;;-1.12;100.00
12676;BME280;63820;65.654;21.944;2023-01-13T05:42:38;98499.78;;;-1.04;100.00
12676;BME280;63820;65.654;21.944;2023-01-13T05:45:41;98508.19;;;-1.02;100.00
12676;BME280;63820;65.654;21.944;2023-01-13T05:51:14;98504.53;;;-0.93;100.00
12676;BME280;63820;65.654;21.944;2023-01-13T05:53:58;98511.22;;;-0.89;100.00
12676;BME280;63820;65.654;21.944;2023-01-13T05:56:42;98513.72;;;-0.88;100.00
12676;BME280;63820;65.654;21.944;2023-01-13T05:59:26;98512.97;;;-0.91;100.00
12676;BME280;63820;65.654;21.944;2023-01-13T06:02:10;98520.69;;;-0.93;100.00
12676;BME280;63820;65.654;21.944;2023-01-13T06:04:54;98530.31;;;-1.03;100.00
12676;BME280;63820;65.654;21.944;2023-01-13T06:07:38;98538.38;;;-1.16;100.00
12676;BME280;63820;65.654;21.944;2023-01-13T06:10:23;98537.53;;;-1.17;100.00
12676;BME280;63820;65.654;21.944;2023-01-13T06:13:07;98539.34;;;-1.20;100.00
12676;BME280;63820;65.654;21.944;2023-01-13T06:15:56;98540.38;;;-1.27;100.00
12676;BME280;63820;65.654;21.944;2023-01-13T06:18:41;98539.53;;;-1.28;100.00
12676;BME280;63820;65.654;21.944;2023-01-13T06:21:25;98540.22;;;-1.21;100.00
12676;BME280;63820;65.654;21.944;2023-01-13T06:24:09;98543.56;;;-1.19;100.00
12676;BME280;63820;65.654;21.944;2023-01-13T06:26:53;98540.88;;;-1.15;100.00
12676;BME280;63820;65.654;21.944;2023-01-13T06:29:38;98554.31;;;-1.08;100.00
12676;BME280;63820;65.654;21.944;2023-01-13T06:32:32;98567.94;;;-1.09;100.00
12676;BME280;63820;65.654;21.944;2023-01-13T06:35:22;98568.25;;;-0.90;100.00
12676;BME280;63820;65.654;21.944;2023-01-13T06:38:11;98564.44;;;-0.76;100.00
12676;BME280;63820;65.654;21.944;2023-01-13T06:40:56;98574.91;;;-0.85;100.00
12676;BME280;63820;65.654;21.944;2023-01-13T06:43:41;98580.69;;;-0.80;100.00
12676;BME280;63820;65.654;21.944;2023-01-13T06:46:25;98578.72;;;-0.70;100.00
12676;BME280;63820;65.654;21.944;2023-01-13T06:49:09;98572.78;;;-0.71;100.00
12676;BME280;63820;65.654;21.944;2023-01-13T06:51:54;98574.38;;;-0.67;100.00
12676;BME280;63820;65.654;21.944;2023-01-13T06:54:38;98560.03;;;-0.71;100.00
12676;BME280;63820;65.654;21.944;2023-01-13T06:57:23;98579.66;;;-0.73;100.00
12676;BME280;63820;65.654;21.944;2023-01-13T07:00:08;98576.88;;;-0.65;100.00
12676;BME280;63820;65.654;21.944;2023-01-13T07:02:52;98565.91;;;-0.69;100.00
12676;BME280;63820;65.654;21.944;2023-01-13T07:05:37;98576.13;;;-0.69;100.00
12676;BME280;63820;65.654;21.944;2023-01-13T07:08:22;98582.72;;;-0.61;100.00
12676;BME280;63820;65.654;21.944;2023-01-13T07:11:07;98586.09;;;-0.59;100.00
12676;BME280;63820;65.654;21.944;2023-01-13T07:13:51;98584.41;;;-0.60;100.00
12676;BME280;63820;65.654;21.944;2023-01-13T07:16:54;98586.09;;;-0.59;100.00
12676;BME280;63820;65.654;21.944;2023-01-13T07:19:39;98601.41;;;-0.59;100.00
12676;BME280;63820;65.654;21.944;2023-01-13T07:22:23;98595.50;;;-0.61;100.00
12676;BME280;63820;65.654;21.944;2023-01-13T07:25:08;98604.97;;;-0.65;100.00
12676;BME280;63820;65.654;21.944;2023-01-13T07:27:52;98616.81;;;-0.62;100.00
12676;BME280;63820;65.654;21.944;2023-01-13T07:30:37;98616.97;;;-0.69;100.00
12676;BME280;63820;65.654;21.944;2023-01-13T07:33:22;98632.38;;;-0.72;100.00
12676;BME280;63820;65.654;21.944;2023-01-13T07:36:06;98632.28;;;-0.69;100.00
12676;BME280;63820;65.654;21.944;2023-01-13T07:38:50;98627.31;;;-0.73;100.00
12676;BME280;63820;65.654;21.944;2023-01-13T07:41:34;98644.19;;;-0.68;100.00
12676;BME280;63820;65.654;21.944;2023-01-13T07:44:37;98650.84;;;-0.62;100.00
12676;BME280;63820;65.654;21.944;2023-01-13T07:47:21;98642.75;;;-0.47;100.00
12676;BME280;63820;65.654;21.944;2023-01-13T07:50:07;98640.84;;;-0.40;100.00
12676;BME280;63820;65.654;21.944;2023-01-13T07:52:52;98649.41;;;-0.41;100.00
12676;BME280;63820;65.654;21.944;2023-01-13T07:55:43;98665.50;;;-0.39;100.00
12676;BME280;63820;65.654;21.944;2023-01-13T07:58:27;98661.25;;;-0.39;100.00
12676;BME280;63820;65.654;21.944;2023-01-13T08:01:12;98667.84;;;-0.31;100.00
12676;BME280;63820;65.654;21.944;2023-01-13T08:03:57;98664.50;;;-0.34;100.00
12676;BME280;63820;65.654;21.944;2023-01-13T08:06:41;98668.91;;;-0.39;100.00
12676;BME280;63820;65.654;21.944;2023-01-13T08:09:26;98670.56;;;-0.38;100.00
12676;BME280;63820;65.654;21.944;2023-01-13T08:12:09;98672.91;;;-0.30;100.00
12676;BME280;63820;65.654;21.944;2023-01-13T08:15:12;98676.69;;;-0.43;100.00
12676;BME280;63820;65.654;21.944;2023-01-13T08:17:57;98680.28;;;-0.50;100.00
12676;BME280;63820;65.654;21.944;2023-01-13T08:20:42;98673.59;;;-0.54;100.00
12676;BME280;63820;65.654;21.944;2023-01-13T08:23:26;98683.84;;;-0.56;100.00
12676;BME280;63820;65.654;21.944;2023-01-13T08:26:13;98694.91;;;-0.55;100.00
12676;BME280;63820;65.654;21.944;2023-01-13T08:28:58;98702.69;;;-0.60;100.00
12676;BME280;63820;65.654;21.944;2023-01-13T08:31:42;98706.88;;;-0.57;100.00
12676;BME280;63820;65.654;21.944;2023-01-13T08:34:26;98714.66;;;-0.62;100.00
12676;BME280;63820;65.654;21.944;2023-01-13T08:37:10;98712.06;;;-0.60;100.00
12676;BME280;63820;65.654;21.944;2023-01-13T08:39:54;98708.00;;;-0.68;100.00
12676;BME280;63820;65.654;21.944;2023-01-13T08:42:38;98706.28;;;-0.67;100.00
12676;BME280;63820;65.654;21.944;2023-01-13T08:45:22;98709.00;;;-0.73;100.00
12676;BME280;63820;65.654;21.944;2023-01-13T08:48:07;98718.47;;;-0.77;100.00
12676;BME280;63820;65.654;21.944;2023-01-13T08:50:52;98711.13;;;-0.89;100.00
12676;BME280;63820;65.654;21.944;2023-01-13T08:53:36;98715.31;;;-0.86;100.00
12676;BME280;63820;65.654;21.944;2023-01-13T08:56:20;98723.06;;;-0.91;100.00
12676;BME280;63820;65.654;21.944;2023-01-13T08:59:04;98732.56;;;-0.96;100.00
12676;BME280;63820;65.654;21.944;2023-01-13T09:01:49;98745.47;;;-1.02;100.00
12676;BME280;63820;65.654;21.944;2023-01-13T09:04:33;98738.81;;;-1.06;100.00
12676;BME280;63820;65.654;21.944;2023-01-13T09:07:18;98745.41;;;-0.99;100.00
12676;BME280;63820;65.654;21.944;2023-01-13T09:10:04;98743.97;;;-1.09;100.00
12676;BME280;63820;65.654;21.944;2023-01-13T09:12:50;98743.97;;;-1.09;100.00
12676;BME280;63820;65.654;21.944;2023-01-13T09:15:53;98747.63;;;-1.19;100.00
12676;BME280;63820;65.654;21.944;2023-01-13T09:18:39;98759.44;;;-1.15;100.00
12676;BME280;63820;65.654;21.944;2023-01-13T09:21:24;98759.47;;;-1.17;100.00
12676;BME280;63820;65.654;21.944;2023-01-13T09:24:09;98751.75;;;-1.14;100.00
12676;BME280;63820;65.654;21.944;2023-01-13T09:26:53;98762.72;;;-1.10;100.00
12676;BME280;63820;65.654;21.944;2023-01-13T09:29:38;98769.50;;;-1.09;100.00
12676;BME280;63820;65.654;21.944;2023-01-13T09:32:22;98775.31;;;-1.04;100.00
12676;BME280;63820;65.654;21.944;2023-01-13T09:35:07;98778.53;;;-0.98;100.00
12676;BME280;63820;65.654;21.944;2023-01-13T09:37:52;98777.63;;;-0.95;100.00
12676;BME280;63820;65.654;21.944;2023-01-13T09:40:38;98774.00;;;-0.86;100.00
12676;BME280;63820;65.654;21.944;2023-01-13T09:43:36;98757.97;;;-0.91;100.00
12676;BME280;63820;65.654;21.944;2023-01-13T09:46:44;98761.47;;;-0.95;100.00
12676;BME280;63820;65.654;21.944;2023-01-13T09:49:34;98783.34;;;-0.85;100.00
12676;BME280;63820;65.654;21.944;2023-01-13T09:52:23;98788.47;;;-0.87;100.00
12676;BME280;63820;65.654;21.944;2023-01-13T09:58:28;98800.06;;;-0.74;100.00
12676;BME280;63820;65.654;21.944;2023-01-13T10:01:22;98792.69;;;-0.52;100.00
12676;BME280;63820;65.654;21.944;2023-01-13T10:04:12;98803.28;;;-0.33;100.00
12676;BME280;63820;65.654;21.944;2023-01-13T10:07:00;98806.72;;;-0.03;100.00
12676;BME280;63820;65.654;21.944;2023-01-13T10:09:57;98796.63;;;0.22;100.00
12676;BME280;63820;65.654;21.944;2023-01-13T10:12:41;98793.88;;;0.85;100.00
12676;BME280;63820;65.654;21.944;2023-01-13T10:16:12;98794.75;;;0.84;100.00
12676;BME280;63820;65.654;21.944;2023-01-13T10:19:07;98806.84;;;0.51;100.00
12676;BME280;63820;65.654;21.944;2023-01-13T10:21:58;98819.19;;;0.08;100.00
12676;BME280;63820;65.654;21.944;2023-01-13T10:27:47;98825.63;;;0.21;100.00
12676;BME280;63820;65.654;21.944;2023-01-13T10:30:36;98832.75;;;0.10;100.00
12676;BME280;63820;65.654;21.944;2023-01-13T10:33:26;98832.94;;;0.62;100.00
12676;BME280;63820;65.654;21.944;2023-01-13T10:39:08;98825.22;;;0.92;100.00
12676;BME280;63820;65.654;21.944;2023-01-13T10:42:03;98838.44;;;0.78;100.00
12676;BME280;63820;65.654;21.944;2023-01-13T10:47:35;98842.81;;;0.16;100.00
12676;BME280;63820;65.654;21.944;2023-01-13T10:50:23;98840.06;;;-0.08;100.00
12676;BME280;63820;65.654;21.944;2023-01-13T10:53:23;98845.19;;;-0.08;100.00
12676;BME280;63820;65.654;21.944;2023-01-13T10:56:15;98848.88;;;-0.18;100.00
12676;BME280;63820;65.654;21.944;2023-01-13T11:05:09;98858.03;;;-0.43;100.00
12676;BME280;63820;65.654;21.944;2023-01-13T11:08:01;98855.59;;;0.16;100.00
12676;BME280;63820;65.654;21.944;2023-01-13T11:10:48;98864.72;;;0.24;100.00
12676;BME280;63820;65.654;21.944;2023-01-13T11:13:36;98860.72;;;-0.49;100.00
12676;BME280;63820;65.654;21.944;2023-01-13T11:16:45;98868.16;;;-0.74;100.00
12676;BME280;63820;65.654;21.944;2023-01-13T11:19:34;98880.66;;;-1.01;100.00
12676;BME280;63820;65.654;21.944;2023-01-13T11:22:24;98883.34;;;-1.05;100.00
12676;BME280;63820;65.654;21.944;2023-01-13T11:25:33;98880.84;;;-1.07;100.00
12676;BME280;63820;65.654;21.944;2023-01-13T11:31:38;98881.94;;;-1.18;100.00
12676;BME280;63820;65.654;21.944;2023-01-13T11:34:35;98883.81;;;-1.26;100.00
12676;BME280;63820;65.654;21.944;2023-01-13T11:37:24;98883.09;;;-1.33;100.00
12676;BME280;63820;65.654;21.944;2023-01-13T11:40:17;98880.91;;;-1.50;100.00
12676;BME280;63820;65.654;21.944;2023-01-13T11:46:13;98897.09;;;-1.95;100.00
12676;BME280;63820;65.654;21.944;2023-01-13T11:48:58;98905.59;;;-1.97;100.00
12676;BME280;63820;65.654;21.944;2023-01-13T11:51:50;98907.16;;;-1.89;100.00
12676;BME280;63820;65.654;21.944;2023-01-13T11:54:52;98910.63;;;-1.93;100.00
12676;BME280;63820;65.654;21.944;2023-01-13T12:03:41;98919.50;;;-2.13;100.00
12676;BME280;63820;65.654;21.944;2023-01-13T12:12:19;98945.97;;;-2.77;100.00
12676;BME280;63820;65.654;21.944;2023-01-13T12:18:41;98939.16;;;-2.73;100.00
12676;BME280;63820;65.654;21.944;2023-01-13T12:21:39;98948.44;;;-2.71;100.00
12676;BME280;63820;65.654;21.944;2023-01-13T12:24:54;98954.53;;;-2.81;100.00
12676;BME280;63820;65.654;21.944;2023-01-13T12:27:40;98960.03;;;-3.11;100.00
12676;BME280;63820;65.654;21.944;2023-01-13T12:45:45;98977.91;;;-3.96;100.00
12676;BME280;63820;65.654;21.944;2023-01-13T12:57:28;99003.28;;;-3.92;100.00
12676;BME280;63820;65.654;21.944;2023-01-13T13:00:16;98998.22;;;-3.92;100.00
12676;BME280;63820;65.654;21.944;2023-01-13T13:09:16;99008.00;;;-4.51;100.00
12676;BME280;63820;65.654;21.944;2023-01-13T13:15:48;99023.41;;;-4.81;100.00
12676;BME280;63820;65.654;21.944;2023-01-13T13:18:33;99014.06;;;-4.76;100.00
12676;BME280;63820;65.654;21.944;2023-01-13T13:24:12;99030.19;;;-4.89;100.00
12676;BME280;63820;65.654;21.944;2023-01-13T13:26:56;99028.50;;;-4.86;100.00
12676;BME280;63820;65.654;21.944;2023-01-13T13:41:46;99052.56;;;-4.15;100.00
12676;BME280;63820;65.654;21.944;2023-01-13T13:44:50;99052.66;;;-4.24;100.00
12676;BME280;63820;65.654;21.944;2023-01-13T13:47:53;99065.50;;;-4.47;100.00
12676;BME280;63820;65.654;21.944;2023-01-13T13:50:46;99063.91;;;-4.65;100.00
12676;BME280;63820;65.654;21.944;2023-01-13T13:53:34;99059.69;;;-4.67;100.00
12676;BME280;63820;65.654;21.944;2023-01-13T13:56:22;99064.78;;;-4.72;100.00
12676;BME280;63820;65.654;21.944;2023-01-13T13:59:10;99073.25;;;-4.76;100.00
12676;BME280;63820;65.654;21.944;2023-01-13T14:01:57;99065.75;;;-5.00;100.00
12676;BME280;63820;65.654;21.944;2023-01-13T14:04:46;99070.03;;;-5.17;100.00
12676;BME280;63820;65.654;21.944;2023-01-13T14:07:30;99067.56;;;-5.34;100.00
12676;BME280;63820;65.654;21.944;2023-01-13T14:10:23;99072.66;;;-5.51;100.00
12676;BME280;63820;65.654;21.944;2023-01-13T14:16:05;99092.09;;;-5.77;100.00
12676;BME280;63820;65.654;21.944;2023-01-13T14:18:53;99088.72;;;-5.67;100.00
12676;BME280;63820;65.654;21.944;2023-01-13T14:21:37;99087.88;;;-5.72;100.00
12676;BME280;63820;65.654;21.944;2023-01-13T14:24:21;99087.88;;;-5.84;100.00
12676;BME280;63820;65.654;21.944;2023-01-13T14:27:16;99093.81;;;-5.91;100.00
12676;BME280;63820;65.654;21.944;2023-01-13T14:30:00;99098.03;;;-6.09;100.00
12676;BME280;63820;65.654;21.944;2023-01-13T14:32:45;99098.88;;;-6.07;100.00
12676;BME280;63820;65.654;21.944;2023-01-13T14:35:30;99102.25;;;-6.11;100.00
12676;BME280;63820;65.654;21.944;2023-01-13T14:38:15;99080.34;;;-6.24;100.00
12676;BME280;63820;65.654;21.944;2023-01-13T14:44:06;99110.66;;;-6.21;100.00
12676;BME280;63820;65.654;21.944;2023-01-13T14:46:53;99114.91;;;-6.11;100.00
12676;BME280;63820;65.654;21.944;2023-01-13T14:50:34;99125.00;;;-6.21;100.00
12676;BME280;63820;65.654;21.944;2023-01-13T14:52:53;99131.75;;;-6.20;100.00
12676;BME280;63820;65.654;21.944;2023-01-13T14:55:39;99123.34;;;-6.25;100.00
12676;BME280;63820;65.654;21.944;2023-01-13T14:58:26;99122.47;;;-6.29;100.00
12676;BME280;63820;65.654;21.944;2023-01-13T15:01:29;99125.00;;;-6.40;100.00
12676;BME280;63820;65.654;21.944;2023-01-13T15:04:25;99130.91;;;-6.21;100.00
12676;BME280;63820;65.654;21.944;2023-01-13T15:07:19;99135.13;;;-6.26;100.00
12676;BME280;63820;65.654;21.944;2023-01-13T15:10:14;99141.03;;;-6.32;100.00
12676;BME280;63820;65.654;21.944;2023-01-13T15:13:04;99134.25;;;-6.46;100.00
12676;BME280;63820;65.654;21.944;2023-01-13T15:15:52;99136.72;;;-6.60;100.00
12676;BME280;63820;65.654;21.944;2023-01-13T15:18:37;99134.16;;;-6.72;100.00
12676;BME280;63820;65.654;21.944;2023-01-13T15:21:24;99141.69;;;-6.81;100.00
12676;BME280;63820;65.654;21.944;2023-01-13T15:24:08;99139.94;;;-6.95;100.00
12676;BME280;63820;65.654;21.944;2023-01-13T15:26:52;99137.41;;;-6.96;100.00
12676;BME280;63820;65.654;21.944;2023-01-13T15:29:36;99143.31;;;-6.91;100.00
12676;BME280;63820;65.654;21.944;2023-01-13T15:32:21;99143.25;;;-7.05;100.00
12676;BME280;63820;65.654;21.944;2023-01-13T15:35:05;99148.28;;;-7.06;100.00
12676;BME280;63820;65.654;21.944;2023-01-13T15:37:50;99171.03;;;-7.09;100.00
12676;BME280;63820;65.654;21.944;2023-01-13T15:40:35;99160.88;;;-7.15;100.00
12676;BME280;63820;65.654;21.944;2023-01-13T15:43:22;99165.09;;;-7.16;100.00
12676;BME280;63820;65.654;21.944;2023-01-13T15:46:25;99168.38;;;-7.28;100.00
12676;BME280;63820;65.654;21.944;2023-01-13T15:52:22;99179.38;;;-7.19;100.00
12676;BME280;63820;65.654;21.944;2023-01-13T15:55:07;99172.66;;;-7.16;100.00
12676;BME280;63820;65.654;21.944;2023-01-13T15:57:52;99173.53;;;-7.12;100.00
12676;BME280;63820;65.654;21.944;2023-01-13T16:00:35;99179.34;;;-7.29;100.00
12676;BME280;63820;65.654;21.944;2023-01-13T16:03:20;99193.63;;;-7.31;100.00
12676;BME280;63820;65.654;21.944;2023-01-13T16:06:13;99198.69;;;-7.28;100.00
12676;BME280;63820;65.654;21.944;2023-01-13T16:08:59;99191.13;;;-7.25;100.00
12676;BME280;63820;65.654;21.944;2023-01-13T16:11:43;99199.53;;;-7.32;100.00
12676;BME280;63820;65.654;21.944;2023-01-13T16:14:27;99210.41;;;-7.40;100.00
12676;BME280;63820;65.654;21.944;2023-01-13T16:17:17;99201.97;;;-7.42;100.00
12676;BME280;63820;65.654;21.944;2023-01-13T16:20:02;99201.97;;;-7.41;100.00
12676;BME280;63820;65.654;21.944;2023-01-13T16:22:46;99213.75;;;-7.43;100.00
12676;BME280;63820;65.654;21.944;2023-01-13T16:25:31;99213.66;;;-7.52;100.00
12676;BME280;63820;65.654;21.944;2023-01-13T16:28:22;99215.25;;;-7.63;100.00
12676;BME280;63820;65.654;21.944;2023-01-13T16:31:37;99217.94;;;-7.45;100.00
12676;BME280;63820;65.654;21.944;2023-01-13T16:34:21;99215.41;;;-7.45;100.00
12676;BME280;63820;65.654;21.944;2023-01-13T16:37:17;99219.59;;;-7.47;100.00
12676;BME280;63820;65.654;21.944;2023-01-13T16:40:02;99227.13;;;-7.53;100.00
12676;BME280;63820;65.654;21.944;2023-01-13T16:42:46;99222.81;;;-7.66;100.00